createdAt,value
2023-05-04T00:02:43.787Z,12.10
2023-05-04T00:05:24.666Z,12.10
2023-05-04T00:08:03.734Z,12.10
2023-05-04T00:10:41.583Z,12.00
2023-05-04T00:13:12.255Z,12.00
2023-05-04T00:15:56.113Z,12.00
2023-05-04T00:18:28.100Z,12.00
2023-05-04T00:21:03.772Z,12.00
2023-05-04T00:23:36.187Z,11.90
2023-05-04T00:26:12.242Z,11.80
2023-05-04T00:28:45.593Z,11.80
2023-05-04T00:31:22.124Z,11.80
2023-05-04T00:34:07.877Z,11.70
2023-05-04T00:36:46.802Z,11.70
2023-05-04T00:39:27.822Z,11.70
2023-05-04T00:41:58.817Z,11.70
2023-05-04T00:44:37.862Z,11.60
2023-05-04T00:47:11.287Z,11.60
2023-05-04T00:49:59.103Z,11.50
2023-05-04T00:52:38.593Z,11.50
2023-05-04T00:55:18.471Z,11.40
2023-05-04T00:57:57.571Z,11.40
2023-05-04T01:00:37.319Z,11.30
2023-05-04T01:03:16.251Z,11.20
2023-05-04T01:05:56.475Z,11.10
2023-05-04T01:08:35.284Z,11.10
2023-05-04T01:11:19.533Z,11.00
2023-05-04T01:14:01.288Z,11.00
2023-05-04T01:16:38.993Z,10.90
2023-05-04T01:19:13.885Z,10.90
2023-05-04T01:21:52.263Z,10.90
2023-05-04T01:24:29.829Z,10.90
2023-05-04T01:27:13.505Z,10.90
2023-05-04T01:29:49.142Z,10.80
2023-05-04T01:32:30.115Z,10.80
2023-05-04T01:35:11.535Z,10.70
2023-05-04T01:38:00.514Z,10.70
2023-05-04T01:40:29.969Z,10.70
2023-05-04T01:43:01.320Z,10.60
2023-05-04T01:45:34.100Z,10.60
2023-05-04T01:48:05.584Z,10.60
2023-05-04T01:50:35.958Z,10.60
2023-05-04T01:53:13.327Z,10.60
2023-05-04T01:55:56.595Z,10.60
2023-05-04T01:58:29.405Z,10.60
2023-05-04T02:01:07.474Z,10.60
2023-05-04T02:03:45.065Z,10.60
2023-05-04T02:06:19.853Z,10.60
2023-05-04T02:08:58.510Z,10.70
2023-05-04T02:11:36.585Z,10.70
2023-05-04T02:14:08.000Z,10.70
2023-05-04T02:16:44.129Z,10.70
2023-05-04T02:19:14.874Z,10.60
2023-05-04T02:21:44.979Z,10.60
2023-05-04T02:24:42.352Z,10.60
2023-05-04T02:27:13.081Z,10.50
2023-05-04T02:29:54.909Z,10.50
2023-05-04T02:32:27.052Z,10.50
2023-05-04T02:35:02.522Z,10.50
2023-05-04T02:37:35.288Z,10.50
2023-05-04T02:40:20.722Z,10.50
2023-05-04T02:43:00.110Z,10.50
2023-05-04T02:45:33.405Z,10.50
2023-05-04T02:48:04.535Z,10.50
2023-05-04T02:50:41.629Z,10.40
2023-05-04T02:53:16.871Z,10.30
2023-05-04T02:55:53.224Z,10.20
2023-05-04T02:58:24.542Z,10.10
2023-05-04T03:01:01.104Z,10.10
2023-05-04T03:03:37.422Z,10.00
2023-05-04T03:06:18.481Z,10.00
2023-05-04T03:08:51.649Z,10.00
2023-05-04T03:11:40.169Z,10.00
2023-05-04T03:14:14.911Z,9.90
2023-05-04T03:16:51.939Z,9.90
2023-05-04T03:19:32.132Z,9.90
2023-05-04T03:22:11.096Z,9.80
2023-05-04T03:24:42.669Z,9.80
2023-05-04T03:27:22.354Z,9.80
2023-05-04T03:29:52.676Z,9.80
2023-05-04T03:32:29.357Z,9.80
2023-05-04T03:34:57.725Z,9.80
2023-05-04T03:37:29.332Z,9.80
2023-05-04T03:40:00.155Z,9.80
2023-05-04T03:42:40.489Z,9.80
2023-05-04T03:45:11.912Z,9.90
2023-05-04T03:47:43.042Z,9.90
2023-05-04T03:50:27.253Z,9.90
2023-05-04T03:52:57.889Z,9.90
2023-05-04T03:55:39.412Z,9.90
2023-05-04T03:58:11.361Z,9.80
2023-05-04T04:00:47.270Z,9.80
2023-05-04T04:03:19.842Z,9.70
2023-05-04T04:05:55.528Z,9.60
2023-05-04T04:08:32.641Z,9.60
2023-05-04T04:11:11.691Z,9.60
2023-05-04T04:13:48.546Z,9.50
2023-05-04T04:16:27.779Z,9.50
2023-05-04T04:19:07.385Z,9.50
2023-05-04T04:21:45.517Z,9.50
2023-05-04T04:24:24.736Z,9.50
2023-05-04T04:27:00.046Z,9.50
2023-05-04T04:29:38.672Z,9.50
2023-05-04T04:32:13.105Z,9.50
2023-05-04T04:34:47.808Z,9.50
2023-05-04T04:37:19.272Z,9.50
2023-05-04T04:39:52.562Z,9.60
2023-05-04T04:42:32.837Z,9.60
2023-05-04T04:45:13.721Z,9.60
2023-05-04T04:47:54.221Z,9.60
2023-05-04T04:50:35.376Z,9.70
2023-05-04T04:53:10.892Z,9.90
2023-05-04T04:55:48.758Z,10.00
2023-05-04T04:58:21.933Z,10.10
2023-05-04T05:01:07.184Z,10.30
2023-05-04T05:03:39.877Z,10.50
2023-05-04T05:06:14.997Z,10.60
2023-05-04T05:08:55.539Z,10.80
2023-05-04T05:11:28.732Z,11.10
2023-05-04T05:14:03.126Z,11.40
2023-05-04T05:16:43.854Z,11.80
2023-05-04T05:19:19.231Z,12.30
2023-05-04T05:21:56.596Z,12.70
2023-05-04T05:24:30.424Z,13.00
2023-05-04T05:27:02.376Z,13.20
2023-05-04T05:29:38.894Z,13.40
2023-05-04T05:32:19.230Z,13.70
2023-05-04T05:34:53.669Z,13.80
2023-05-04T05:37:31.173Z,14.00
2023-05-04T05:40:08.773Z,14.40
2023-05-04T05:42:39.402Z,14.90
2023-05-04T05:45:20.822Z,15.20
2023-05-04T05:47:59.352Z,15.60
2023-05-04T05:50:37.128Z,16.10
2023-05-04T05:53:14.759Z,16.30
2023-05-04T05:55:52.410Z,16.60
2023-05-04T05:58:27.495Z,16.80
2023-05-04T06:01:02.025Z,17.10
2023-05-04T06:03:43.450Z,17.00
2023-05-04T06:06:15.455Z,16.60
2023-05-04T06:08:48.899Z,15.80
2023-05-04T06:11:19.534Z,15.00
2023-05-04T06:13:50.949Z,14.50
2023-05-04T06:16:24.650Z,14.00
2023-05-04T06:19:00.576Z,13.60
2023-05-04T06:21:33.057Z,13.30
2023-05-04T06:24:12.546Z,13.10
2023-05-04T06:26:49.455Z,12.90
2023-05-04T06:29:23.261Z,12.80
2023-05-04T06:31:57.379Z,12.70
2023-05-04T06:34:27.536Z,12.60
2023-05-04T06:36:58.463Z,12.60
2023-05-04T06:39:32.340Z,12.60
2023-05-04T06:42:12.472Z,12.50
2023-05-04T06:44:47.934Z,12.50
2023-05-04T06:47:19.232Z,12.60
2023-05-04T06:50:02.083Z,12.70
2023-05-04T06:52:35.913Z,12.70
2023-05-04T06:55:14.756Z,12.70
2023-05-04T06:57:54.860Z,12.80
2023-05-04T07:00:35.548Z,12.80
2023-05-04T07:03:10.446Z,12.90
2023-05-04T07:05:47.893Z,13.00
2023-05-04T07:08:22.589Z,13.10
2023-05-04T07:10:56.528Z,13.20
2023-05-04T07:13:32.068Z,13.20
2023-05-04T07:16:06.730Z,13.30
2023-05-04T07:18:38.138Z,13.40
2023-05-04T07:21:27.769Z,13.50
2023-05-04T07:24:03.143Z,13.60
2023-05-04T07:26:36.324Z,13.60
2023-05-04T07:29:15.420Z,13.70
2023-05-04T07:31:52.515Z,13.80
2023-05-04T07:34:33.855Z,13.80
2023-05-04T07:37:24.574Z,13.90
2023-05-04T07:39:55.601Z,14.00
2023-05-04T07:42:30.326Z,14.10
2023-05-04T07:45:01.031Z,14.20
2023-05-04T07:47:43.049Z,14.30
2023-05-04T07:50:18.209Z,14.40
2023-05-04T07:53:07.928Z,14.50
2023-05-04T07:55:46.203Z,14.60
2023-05-04T07:58:20.179Z,14.60
2023-05-04T08:00:51.270Z,14.70
2023-05-04T08:03:31.135Z,14.80
2023-05-04T08:06:02.133Z,14.80
2023-05-04T08:08:43.162Z,14.90
2023-05-04T08:11:20.754Z,15.00
2023-05-04T08:13:56.565Z,15.10
2023-05-04T08:16:36.170Z,15.10
2023-05-04T08:19:15.252Z,15.20
2023-05-04T08:21:46.107Z,15.30
2023-05-04T08:24:31.645Z,15.30
2023-05-04T08:27:08.856Z,15.40
2023-05-04T08:29:42.196Z,15.50
2023-05-04T08:32:13.598Z,15.50
2023-05-04T08:34:44.430Z,15.50
2023-05-04T08:37:19.000Z,15.60
2023-05-04T08:39:58.722Z,15.70
2023-05-04T08:42:34.607Z,15.70
2023-05-04T08:45:05.906Z,15.70
2023-05-04T08:47:46.416Z,15.80
2023-05-04T08:50:24.726Z,15.80
2023-05-04T08:53:11.328Z,15.90
2023-05-04T08:55:53.768Z,15.90
2023-05-04T08:58:25.854Z,16.00
2023-05-04T09:01:00.162Z,16.10
2023-05-04T09:03:33.524Z,16.10
2023-05-04T09:06:04.236Z,16.20
2023-05-04T09:08:44.633Z,16.30
2023-05-04T09:11:16.726Z,16.30
2023-05-04T09:13:51.223Z,16.40
2023-05-04T09:16:29.225Z,16.50
2023-05-04T09:19:06.225Z,16.60
2023-05-04T09:21:44.338Z,16.70
2023-05-04T09:24:20.229Z,16.70
2023-05-04T09:26:55.854Z,16.80
2023-05-04T09:29:40.893Z,16.90
2023-05-04T09:32:18.215Z,17.00
2023-05-04T09:34:57.744Z,17.00
2023-05-04T09:37:28.378Z,17.10
2023-05-04T09:40:04.129Z,17.20
2023-05-04T09:42:48.976Z,17.20
2023-05-04T09:45:29.204Z,17.30
2023-05-04T09:47:59.292Z,17.30
2023-05-04T09:50:42.780Z,17.30
2023-05-04T09:53:20.256Z,17.40
2023-05-04T09:56:08.406Z,17.50
2023-05-04T09:58:51.378Z,17.60
2023-05-04T10:01:28.820Z,17.60
2023-05-04T10:04:02.616Z,17.70
2023-05-04T10:06:36.664Z,17.70
2023-05-04T10:09:10.547Z,17.80
2023-05-04T10:11:47.965Z,17.90
2023-05-04T10:14:28.268Z,17.90
2023-05-04T10:17:11.863Z,18.00
2023-05-04T10:20:23.488Z,18.10
2023-05-04T10:23:20.906Z,18.10
2023-05-04T10:26:43.741Z,18.20
2023-05-04T10:29:29.312Z,18.30
2023-05-04T10:31:59.741Z,18.40
2023-05-04T10:34:36.567Z,18.40
2023-05-04T10:37:26.870Z,18.50
2023-05-04T10:40:00.171Z,18.50
2023-05-04T10:42:41.511Z,18.50
2023-05-04T10:45:39.429Z,18.50
2023-05-04T10:48:13.581Z,18.60
2023-05-04T10:50:48.405Z,18.60
2023-05-04T10:53:36.754Z,18.70
2023-05-04T10:56:30.612Z,18.70
2023-05-04T10:59:16.987Z,18.70
2023-05-04T11:01:53.396Z,18.80
2023-05-04T11:04:25.102Z,18.80
2023-05-04T11:07:03.536Z,18.90
2023-05-04T11:09:48.285Z,18.90
2023-05-04T11:12:26.038Z,19.00
2023-05-04T11:15:20.036Z,19.00
2023-05-04T11:18:02.770Z,19.00
2023-05-04T11:20:33.524Z,19.10
2023-05-04T11:23:10.640Z,19.20
2023-05-04T11:25:43.638Z,19.20
2023-05-04T11:28:16.410Z,19.20
2023-05-04T11:30:50.710Z,19.20
2023-05-04T11:33:34.487Z,19.30
2023-05-04T11:36:13.063Z,19.30
2023-05-04T11:38:42.934Z,19.30
2023-05-04T11:41:12.510Z,19.30
2023-05-04T11:43:50.769Z,19.30
2023-05-04T11:46:24.883Z,19.40
2023-05-04T11:49:12.231Z,19.40
2023-05-04T11:51:40.830Z,19.50
2023-05-04T11:54:32.502Z,19.50
2023-05-04T11:57:07.166Z,19.60
2023-05-04T11:59:39.572Z,19.70
2023-05-04T12:02:20.607Z,19.70
2023-05-04T12:05:01.479Z,19.70
2023-05-04T12:07:46.021Z,19.70
2023-05-04T12:10:30.816Z,19.70
2023-05-04T12:13:11.369Z,19.90
2023-05-04T12:15:43.619Z,19.90
2023-05-04T12:18:30.325Z,19.90
2023-05-04T12:21:23.804Z,20.00
2023-05-04T12:23:59.698Z,20.00
2023-05-04T12:26:40.824Z,20.10
2023-05-04T12:29:15.204Z,20.10
2023-05-04T12:31:46.693Z,20.20
2023-05-04T12:34:20.930Z,20.20
2023-05-04T12:37:09.405Z,20.20
2023-05-04T12:39:54.075Z,20.30
2023-05-04T12:42:35.090Z,20.30
2023-05-04T12:45:08.487Z,20.40
2023-05-04T12:47:53.570Z,20.40
2023-05-04T12:50:28.637Z,20.40
2023-05-04T12:53:16.796Z,20.40
2023-05-04T12:55:55.100Z,20.40
2023-05-04T12:58:29.822Z,20.50
2023-05-04T13:01:11.009Z,20.60
2023-05-04T13:03:42.070Z,20.60
2023-05-04T13:06:18.057Z,20.70
2023-05-04T13:08:49.749Z,20.70
2023-05-04T13:11:24.441Z,20.80
2023-05-04T13:13:59.612Z,20.80
2023-05-04T13:16:38.885Z,20.90
2023-05-04T13:19:15.369Z,20.90
2023-05-04T13:21:55.868Z,20.90
2023-05-04T13:24:35.477Z,20.90
2023-05-04T13:27:16.314Z,20.90
2023-05-04T13:29:48.718Z,20.90
2023-05-04T13:32:29.349Z,20.90
2023-05-04T13:35:03.595Z,20.90
2023-05-04T13:37:37.820Z,21.00
2023-05-04T13:40:17.317Z,21.00
2023-05-04T13:42:51.506Z,21.00
2023-05-04T13:45:23.780Z,21.00
2023-05-04T13:47:58.604Z,21.10
2023-05-04T13:50:29.362Z,21.10
2023-05-04T13:53:11.842Z,21.10
2023-05-04T13:55:50.421Z,21.20
2023-05-04T13:58:24.171Z,21.30
2023-05-04T14:00:59.317Z,21.30
2023-05-04T14:03:37.086Z,21.30
2023-05-04T14:06:16.508Z,21.40
2023-05-04T14:08:51.129Z,21.40
2023-05-04T14:11:39.121Z,21.50
2023-05-04T14:14:14.814Z,21.50
2023-05-04T14:16:48.330Z,21.50
2023-05-04T14:19:29.033Z,21.60
2023-05-04T14:21:59.465Z,21.50
2023-05-04T14:24:39.414Z,21.70
2023-05-04T14:27:12.579Z,21.70
2023-05-04T14:29:47.884Z,21.70
2023-05-04T14:32:29.329Z,21.70
2023-05-04T14:35:11.855Z,21.70
2023-05-04T14:37:44.555Z,21.80
2023-05-04T14:40:25.066Z,21.80
2023-05-04T14:42:57.577Z,21.80
2023-05-04T14:45:30.973Z,21.90
2023-05-04T14:48:04.882Z,21.90
2023-05-04T14:50:35.191Z,21.90
2023-05-04T14:53:14.333Z,21.90
2023-05-04T14:55:48.597Z,21.90
2023-05-04T14:58:41.397Z,21.90
2023-05-04T15:01:12.864Z,22.00
2023-05-04T15:03:53.846Z,22.00
2023-05-04T15:06:38.557Z,22.00
2023-05-04T15:09:09.940Z,21.90
2023-05-04T15:11:51.791Z,22.00
2023-05-04T15:14:26.231Z,22.00
2023-05-04T15:17:06.756Z,22.00
2023-05-04T15:19:42.248Z,22.10
2023-05-04T15:22:19.014Z,22.10
2023-05-04T15:24:54.791Z,22.10
2023-05-04T15:27:26.665Z,22.10
2023-05-04T15:29:58.935Z,22.10
2023-05-04T15:32:34.066Z,22.00
2023-05-04T15:35:07.479Z,22.10
2023-05-04T15:37:37.546Z,22.10
2023-05-04T15:40:15.539Z,22.20
2023-05-04T15:42:48.547Z,22.20
2023-05-04T15:45:29.232Z,22.20
2023-05-04T15:48:02.860Z,22.20
2023-05-04T15:50:37.647Z,22.10
2023-05-04T15:53:08.657Z,22.10
2023-05-04T15:55:42.004Z,22.10
2023-05-04T15:58:13.363Z,22.20
2023-05-04T16:00:54.136Z,22.20
2023-05-04T16:03:29.547Z,22.20
2023-05-04T16:06:00.654Z,22.20
2023-05-04T16:08:32.265Z,22.20
2023-05-04T16:11:02.860Z,22.20
2023-05-04T16:13:44.306Z,22.20
2023-05-04T16:16:28.028Z,22.20
2023-05-04T16:19:10.130Z,22.20
2023-05-04T16:21:40.993Z,22.20
2023-05-04T16:24:16.817Z,22.20
2023-05-04T16:26:56.987Z,22.20
2023-05-04T16:29:31.829Z,22.20
2023-05-04T16:32:10.604Z,22.20
2023-05-04T16:34:41.185Z,22.20
2023-05-04T16:37:19.765Z,22.20
2023-05-04T16:39:55.531Z,22.20
2023-05-04T16:42:34.153Z,22.10
2023-05-04T16:45:08.706Z,22.10
2023-05-04T16:47:45.398Z,22.10
2023-05-04T16:50:25.862Z,22.10
2023-05-04T16:52:59.336Z,22.10
2023-05-04T16:55:38.212Z,22.10
2023-05-04T16:58:14.783Z,22.10
2023-05-04T17:00:48.257Z,22.10
2023-05-04T17:03:24.229Z,22.10
2023-05-04T17:05:59.281Z,22.10
2023-05-04T17:08:38.154Z,22.10
2023-05-04T17:11:07.905Z,22.10
2023-05-04T17:13:49.060Z,22.10
2023-05-04T17:16:21.191Z,22.10
2023-05-04T17:19:00.470Z,22.00
2023-05-04T17:21:35.348Z,22.00
2023-05-04T17:24:09.212Z,22.00
2023-05-04T17:26:49.125Z,21.90
2023-05-04T17:29:19.762Z,21.90
2023-05-04T17:31:53.834Z,21.90
2023-05-04T17:34:26.638Z,21.90
2023-05-04T17:36:58.420Z,21.90
2023-05-04T17:39:36.332Z,21.90
2023-05-04T17:42:16.228Z,21.90
2023-05-04T17:44:47.917Z,21.90
2023-05-04T17:47:21.539Z,21.80
2023-05-04T17:49:59.140Z,21.80
2023-05-04T17:52:40.076Z,21.80
2023-05-04T17:55:19.450Z,21.70
2023-05-04T17:57:50.850Z,21.70
2023-05-04T18:00:21.381Z,21.60
2023-05-04T18:03:02.482Z,21.50
2023-05-04T18:05:37.107Z,21.50
2023-05-04T18:08:11.792Z,21.40
2023-05-04T18:10:54.894Z,21.30
2023-05-04T18:13:36.688Z,21.30
2023-05-04T18:16:08.443Z,21.20
2023-05-04T18:18:43.453Z,21.10
2023-05-04T18:21:17.059Z,21.00
2023-05-04T18:23:46.903Z,20.90
2023-05-04T18:26:22.526Z,20.90
2023-05-04T18:29:04.277Z,20.80
2023-05-04T18:31:44.719Z,20.70
2023-05-04T18:34:24.581Z,20.50
2023-05-04T18:37:02.688Z,20.40
2023-05-04T18:39:42.352Z,20.20
2023-05-04T18:42:19.685Z,20.10
2023-05-04T18:44:49.911Z,19.90
2023-05-04T18:47:23.384Z,19.70
2023-05-04T18:49:54.796Z,19.60
2023-05-04T18:52:32.353Z,19.40
2023-05-04T18:55:09.273Z,19.30
2023-05-04T18:57:47.705Z,19.20
2023-05-04T19:00:29.993Z,19.10
2023-05-04T19:03:02.302Z,19.00
2023-05-04T19:05:37.045Z,18.90
2023-05-04T19:08:19.618Z,18.80
2023-05-04T19:11:02.713Z,18.70
2023-05-04T19:13:35.516Z,18.50
2023-05-04T19:16:07.159Z,18.50
2023-05-04T19:18:40.427Z,18.40
2023-05-04T19:21:20.991Z,18.30
2023-05-04T19:23:52.998Z,18.20
2023-05-04T19:26:32.508Z,18.10
2023-05-04T19:29:09.155Z,18.00
2023-05-04T19:31:46.278Z,17.90
2023-05-04T19:34:20.484Z,17.80
2023-05-04T19:37:01.520Z,17.70
2023-05-04T19:39:40.292Z,17.70
2023-05-04T19:42:17.731Z,17.60
2023-05-04T19:44:46.399Z,17.60
2023-05-04T19:47:22.450Z,17.60
2023-05-04T19:49:54.105Z,17.60
2023-05-04T19:52:30.452Z,17.50
2023-05-04T19:55:23.575Z,17.50
2023-05-04T19:57:56.279Z,17.40
2023-05-04T20:00:27.666Z,17.30
2023-05-04T20:03:10.008Z,17.20
2023-05-04T20:05:42.082Z,17.20
2023-05-04T20:08:15.143Z,17.10
2023-05-04T20:10:54.776Z,17.00
2023-05-04T20:13:29.122Z,17.00
2023-05-04T20:16:04.438Z,16.90
2023-05-04T20:18:38.284Z,16.80
2023-05-04T20:21:15.481Z,16.70
2023-05-04T20:23:56.385Z,16.70
2023-05-04T20:26:30.479Z,16.70
2023-05-04T20:29:03.226Z,16.60
2023-05-04T20:31:35.024Z,16.50
2023-05-04T20:34:16.392Z,16.50
2023-05-04T20:36:48.955Z,16.50
2023-05-04T20:39:26.935Z,16.40
2023-05-04T20:42:05.757Z,16.40
2023-05-04T20:44:40.709Z,16.40
2023-05-04T20:47:15.371Z,16.30
2023-05-04T20:49:46.758Z,16.30
2023-05-04T20:52:16.444Z,16.30
2023-05-04T20:54:53.962Z,16.30
2023-05-04T20:57:28.935Z,16.30
2023-05-04T21:00:08.879Z,16.20
2023-05-04T21:02:44.974Z,16.20
2023-05-04T21:05:19.905Z,16.20
2023-05-04T21:07:54.226Z,16.20
2023-05-04T21:10:28.830Z,16.20
2023-05-04T21:13:09.699Z,16.20
2023-05-04T21:15:44.281Z,16.20
2023-05-04T21:18:15.091Z,16.20
2023-05-04T21:20:53.866Z,16.20
2023-05-04T21:23:25.566Z,16.10
2023-05-04T21:26:09.894Z,16.10
2023-05-04T21:28:41.993Z,16.10
2023-05-04T21:31:20.343Z,16.00
2023-05-04T21:33:50.786Z,16.00
2023-05-04T21:36:23.329Z,16.00
2023-05-04T21:38:57.573Z,15.90
2023-05-04T21:41:32.258Z,15.90
2023-05-04T21:44:15.794Z,15.90
2023-05-04T21:46:53.668Z,15.90
2023-05-04T21:49:25.715Z,15.90
2023-05-04T21:52:09.754Z,15.80
2023-05-04T21:54:48.697Z,15.80
2023-05-04T21:57:19.941Z,15.70
2023-05-04T22:00:12.433Z,15.70
2023-05-04T22:02:45.757Z,15.70
2023-05-04T22:05:27.412Z,15.60
2023-05-04T22:08:02.411Z,15.60
2023-05-04T22:10:39.524Z,15.60
2023-05-04T22:13:24.487Z,15.50
2023-05-04T22:15:56.079Z,15.50
2023-05-04T22:18:24.721Z,15.40
2023-05-04T22:20:58.764Z,15.40
2023-05-04T22:23:31.834Z,15.30
2023-05-04T22:26:05.889Z,15.30
2023-05-04T22:28:46.149Z,15.20
2023-05-04T22:31:23.316Z,15.20
2023-05-04T22:33:53.863Z,15.20
2023-05-04T22:36:31.913Z,15.20
2023-05-04T22:39:04.681Z,15.10
2023-05-04T22:41:38.105Z,15.10
2023-05-04T22:44:11.838Z,15.10
2023-05-04T22:46:49.770Z,15.00
2023-05-04T22:49:29.262Z,15.00
2023-05-04T22:52:04.259Z,15.10
2023-05-04T22:54:41.407Z,15.10
2023-05-04T22:57:14.482Z,15.10
2023-05-04T22:59:48.236Z,15.10
2023-05-04T23:02:34.886Z,15.10
2023-05-04T23:05:07.117Z,15.10
2023-05-04T23:07:52.471Z,15.10
2023-05-04T23:10:24.726Z,15.10
2023-05-04T23:12:55.713Z,15.10
2023-05-04T23:15:28.859Z,15.20
2023-05-04T23:18:06.288Z,15.20
2023-05-04T23:20:39.361Z,15.20
2023-05-04T23:23:14.355Z,15.20
2023-05-04T23:25:44.796Z,15.10
2023-05-04T23:28:27.296Z,15.10
2023-05-04T23:31:03.505Z,15.00
2023-05-04T23:33:42.249Z,15.00
2023-05-04T23:36:11.257Z,15.00
2023-05-04T23:38:51.602Z,14.90
2023-05-04T23:41:26.996Z,14.90
2023-05-04T23:44:04.429Z,14.80
2023-05-04T23:46:36.915Z,14.80
2023-05-04T23:49:19.698Z,14.80
2023-05-04T23:51:50.505Z,14.80
2023-05-04T23:54:23.673Z,14.80
2023-05-04T23:56:54.187Z,14.80
2023-05-04T23:59:33.596Z,14.70
